Time,TemperatureF,DewpointF,PressureIn,WindDirection,WindDirectionDegrees,WindSpeedMPH,WindSpeedGustMPH,Humidity,HourlyPrecipIn,Conditions,Clouds,dailyrainin,SoftwareType,DateUTC
2013-02-01 00:02:00,45.0,15.9,30.24,NNE,22,0.0,0.0,31,0.00,,,0.08,WUHU21623XXSP,2013-02-01 08:02:00,
2013-02-01 00:10:00,45.0,16.1,30.24,NNE,22,0.0,0.0,31,0.00,,,0.00,WUHU21623XXSP,2013-02-01 08:10:00,
2013-02-01 00:15:00,45.0,16.1,30.25,WSW,247,0.0,0.0,31,0.00,,,0.00,WUHU21623XXSP,2013-02-01 08:15:00,
2013-02-01 00:20:00,45.0,16.1,30.25,WSW,247,0.0,0.0,31,0.00,,,0.00,WUHU21623XXSP,2013-02-01 08:20:00,
2013-02-01 00:25:00,45.0,16.1,30.25,WSW,247,0.0,0.0,31,0.00,,,0.00,WUHU21623XXSP,2013-02-01 08:25:00,
2013-02-01 00:30:00,45.0,16.1,30.25,WSW,247,0.0,0.0,31,0.00,,,0.00,WUHU21623XXSP,2013-02-01 08:30:00,
2013-02-01 00:35:00,45.0,16.1,30.25,WSW,247,0.0,0.0,31,0.00,,,0.00,WUHU21623XXSP,2013-02-01 08:35:00,
2013-02-01 00:40:00,45.0,16.1,30.25,NE,45,0.0,0.0,31,0.00,,,0.00,WUHU21623XXSP,2013-02-01 08:40:00,
2013-02-01 00:45:00,45.0,16.1,30.25,NE,45,0.0,0.0,31,0.00,,,0.00,WUHU21623XXSP,2013-02-01 08:45:00,
2013-02-01 00:50:00,45.0,16.1,30.25,NE,45,0.0,0.0,31,0.00,,,0.00,WUHU21623XXSP,2013-02-01 08:50:00,
2013-02-01 00:55:00,45.0,16.1,30.25,NE,45,0.0,0.0,31,0.00,,,0.00,WUHU21623XXSP,2013-02-01 08:55:00,
2013-02-01 01:00:00,45.0,16.1,30.25,NE,45,0.0,0.0,31,0.00,,,0.00,WUHU21623XXSP,2013-02-01 09:00:00,
2013-02-01 01:05:00,45.0,16.1,30.25,NE,45,0.0,0.0,31,0.00,,,0.00,WUHU21623XXSP,2013-02-01 09:05:00,
2013-02-01 01:10:00,45.0,16.1,30.24,NE,45,0.0,0.0,31,0.00,,,0.00,WUHU21623XXSP,2013-02-01 09:10:00,
2013-02-01 01:15:00,44.8,15.9,30.25,NE,45,0.0,0.0,31,0.00,,,0.00,WUHU21623XXSP,2013-02-01 09:15:00,
2013-02-01 01:20:00,44.4,15.6,30.25,NE,45,0.0,0.0,31,0.00,,,0.00,WUHU21623XXSP,2013-02-01 09:20:00,
2013-02-01 01:25:00,44.4,15.6,30.25,NE,45,0.0,0.0,31,0.00,,,0.00,WUHU21623XXSP,2013-02-01 09:25:00,
2013-02-01 01:30:00,44.4,15.6,30.25,NE,45,0.0,0.0,31,0.00,,,0.00,WUHU21623XXSP,2013-02-01 09:30:00,
2013-02-01 01:35:00,44.4,15.6,30.25,NE,45,0.0,0.0,31,0.00,,,0.00,WUHU21623XXSP,2013-02-01 09:35:00,
2013-02-01 01:40:00,44.4,15.6,30.25,NE,45,0.0,0.0,31,0.00,,,0.00,WUHU21623XXSP,2013-02-01 09:40:00,
2013-02-01 01:45:00,44.4,15.6,30.25,NE,45,0.0,0.0,31,0.00,,,0.00,WUHU21623XXSP,2013-02-01 09:45:00,
2013-02-01 01:50:00,44.4,15.6,30.25,NE,45,0.0,0.0,31,0.00,,,0.00,WUHU21623XXSP,2013-02-01 09:50:00,
2013-02-01 01:55:00,44.4,15.6,30.26,NE,45,0.0,0.0,31,0.00,,,0.00,WUHU21623XXSP,2013-02-01 09:55:00,
2013-02-01 02:00:00,44.2,15.4,30.26,NE,45,0.0,0.0,31,0.00,,,0.00,WUHU21623XXSP,2013-02-01 10:00:00,
2013-02-01 02:05:00,44.2,15.4,30.26,NE,45,0.0,0.0,31,0.00,,,0.00,WUHU21623XXSP,2013-02-01 10:05:00,
2013-02-01 02:10:00,44.2,15.4,30.26,NE,45,0.0,0.0,31,0.00,,,0.00,WUHU21623XXSP,2013-02-01 10:10:00,
2013-02-01 02:15:00,44.2,15.4,30.25,NE,45,0.0,0.0,31,0.00,,,0.00,WUHU21623XXSP,2013-02-01 10:15:00,
2013-02-01 02:20:00,44.4,15.6,30.25,NE,45,0.0,0.0,31,0.00,,,0.00,WUHU21623XXSP,2013-02-01 10:20:00,
2013-02-01 02:25:00,44.2,15.4,30.25,NE,45,0.0,0.0,31,0.00,,,0.00,WUHU21623XXSP,2013-02-01 10:25:00,
2013-02-01 02:30:00,44.2,15.4,30.25,NE,45,0.0,0.0,31,0.00,,,0.00,WUHU21623XXSP,2013-02-01 10:30:00,
2013-02-01 02:35:00,44.1,15.3,30.25,SE,135,0.0,0.0,31,0.00,,,0.00,WUHU21623XXSP,2013-02-01 10:35:00,
2013-02-01 02:40:00,44.2,15.4,30.25,SE,135,0.0,0.0,31,0.00,,,0.00,WUHU21623XXSP,2013-02-01 10:40:00,
2013-02-01 02:45:00,44.2,15.4,30.25,SE,135,0.0,0.0,31,0.00,,,0.00,WUHU21623XXSP,2013-02-01 10:45:00,
2013-02-01 02:50:00,44.4,15.6,30.25,SE,135,0.0,0.0,31,0.00,,,0.00,WUHU21623XXSP,2013-02-01 10:50:00,
2013-02-01 02:55:00,44.4,15.6,30.25,SE,135,0.0,0.0,31,0.00,,,0.00,WUHU21623XXSP,2013-02-01 10:55:00,
2013-02-01 03:00:00,44.4,15.6,30.25,SE,135,0.0,0.0,31,0.00,,,0.00,WUHU21623XXSP,2013-02-01 11:00:00,
2013-02-01 03:05:00,44.4,15.6,30.25,SE,135,0.0,0.0,31,0.00,,,0.00,WUHU21623XXSP,2013-02-01 11:05:00,
2013-02-01 03:10:00,44.4,15.6,30.25,SE,135,0.0,0.0,31,0.00,,,0.00,WUHU21623XXSP,2013-02-01 11:10:00,
2013-02-01 03:15:00,44.4,15.6,30.25,SE,135,0.0,0.0,31,0.00,,,0.00,WUHU21623XXSP,2013-02-01 11:15:00,
2013-02-01 03:20:00,44.4,15.6,30.25,SE,135,0.0,0.0,31,0.00,,,0.00,WUHU21623XXSP,2013-02-01 11:20:00,
2013-02-01 03:25:00,44.4,15.6,30.25,SE,135,0.0,0.0,31,0.00,,,0.00,WUHU21623XXSP,2013-02-01 11:25:00,
2013-02-01 03:30:00,44.4,15.6,30.25,SE,135,0.0,0.0,31,0.00,,,0.00,WUHU21623XXSP,2013-02-01 11:30:00,
2013-02-01 03:35:00,44.4,15.6,30.25,SE,135,0.0,0.0,31,0.00,,,0.00,WUHU21623XXSP,2013-02-01 11:35:00,
2013-02-01 03:40:00,44.4,15.6,30.25,SE,135,0.0,0.0,31,0.00,,,0.00,WUHU21623XXSP,2013-02-01 11:40:00,
2013-02-01 03:45:00,44.4,15.6,30.25,SE,135,0.0,0.0,31,0.00,,,0.00,WUHU21623XXSP,2013-02-01 11:45:00,
2013-02-01 03:50:00,44.4,15.6,30.25,SE,135,0.0,0.0,31,0.00,,,0.00,WUHU21623XXSP,2013-02-01 11:50:00,
2013-02-01 03:55:00,44.4,15.6,30.26,SE,135,0.0,0.0,31,0.00,,,0.00,WUHU21623XXSP,2013-02-01 11:55:00,
2013-02-01 04:00:00,44.4,15.6,30.26,SE,135,0.0,0.0,31,0.00,,,0.00,WUHU21623XXSP,2013-02-01 12:00:00,
2013-02-01 04:05:00,44.4,15.6,30.26,SE,135,0.0,0.0,31,0.00,,,0.00,WUHU21623XXSP,2013-02-01 12:05:00,
2013-02-01 04:10:00,44.4,15.6,30.26,SE,135,0.0,0.0,31,0.00,,,0.00,WUHU21623XXSP,2013-02-01 12:10:00,
2013-02-01 04:15:00,44.4,15.6,30.26,SE,135,0.0,0.0,31,0.00,,,0.00,WUHU21623XXSP,2013-02-01 12:15:00,
2013-02-01 04:20:00,44.4,15.6,30.26,SE,135,0.0,0.0,31,0.00,,,0.00,WUHU21623XXSP,2013-02-01 12:20:00,
2013-02-01 04:25:00,44.4,15.6,30.27,SE,135,0.0,0.0,31,0.00,,,0.00,WUHU21623XXSP,2013-02-01 12:25:00,
2013-02-01 04:30:00,44.4,15.6,30.26,SSE,157,0.0,0.0,31,0.00,,,0.00,WUHU21623XXSP,2013-02-01 12:30:00,
2013-02-01 04:35:00,44.2,15.4,30.26,SSW,202,0.0,0.0,31,0.00,,,0.00,WUHU21623XXSP,2013-02-01 12:35:00,
2013-02-01 04:40:00,44.2,15.4,30.26,SSW,202,0.0,0.0,31,0.00,,,0.00,WUHU21623XXSP,2013-02-01 12:40:00,
2013-02-01 04:45:00,44.1,15.3,30.26,SSW,202,0.0,0.0,31,0.00,,,0.00,WUHU21623XXSP,2013-02-01 12:45:00,
2013-02-01 04:50:00,43.9,15.1,30.26,SSW,202,0.0,0.0,31,0.00,,,0.00,WUHU21623XXSP,2013-02-01 12:50:00,
2013-02-01 04:55:00,43.9,15.1,30.26,SSW,202,0.0,0.0,31,0.00,,,0.00,WUHU21623XXSP,2013-02-01 12:55:00,
2013-02-01 05:00:00,43.9,15.1,30.26,SSW,202,0.0,0.0,31,0.00,,,0.00,WUHU21623XXSP,2013-02-01 13:00:00,
2013-02-01 05:05:00,43.7,15.1,30.26,SSW,202,0.0,0.0,31,0.00,,,0.00,WUHU21623XXSP,2013-02-01 13:05:00,
2013-02-01 05:10:00,43.9,15.1,30.26,SSW,202,0.0,0.0,31,0.00,,,0.00,WUHU21623XXSP,2013-02-01 13:10:00,
2013-02-01 05:15:00,43.7,14.9,30.26,SSW,202,0.0,0.0,31,0.00,,,0.00,WUHU21623XXSP,2013-02-01 13:15:00,
2013-02-01 05:20:00,43.5,14.8,30.26,SSW,202,0.0,0.0,31,0.00,,,0.00,WUHU21623XXSP,2013-02-01 13:20:00,
2013-02-01 05:25:00,43.5,14.8,30.26,SSW,202,0.0,0.0,31,0.00,,,0.00,WUHU21623XXSP,2013-02-01 13:25:00,
2013-02-01 05:30:00,43.5,14.8,30.25,SSW,202,0.0,0.0,31,0.00,,,0.00,WUHU21623XXSP,2013-02-01 13:30:00,
2013-02-01 05:35:00,43.5,14.8,30.25,SSW,202,0.0,0.0,31,0.00,,,0.00,WUHU21623XXSP,2013-02-01 13:35:00,
2013-02-01 05:40:00,43.3,14.6,30.25,SSW,202,0.0,0.0,31,0.00,,,0.00,WUHU21623XXSP,2013-02-01 13:40:00,
2013-02-01 05:45:00,43.3,14.6,30.25,SSW,202,0.0,0.0,31,0.00,,,0.00,WUHU21623XXSP,2013-02-01 13:45:00,
2013-02-01 05:50:00,43.3,14.6,30.25,SSW,202,0.0,0.0,31,0.00,,,0.00,WUHU21623XXSP,2013-02-01 13:50:00,
2013-02-01 05:55:00,43.2,14.4,30.25,SSW,202,0.0,0.0,31,0.00,,,0.00,WUHU21623XXSP,2013-02-01 13:55:00,
2013-02-01 06:00:00,43.2,14.4,30.25,SSW,202,0.0,0.0,31,0.00,,,0.00,WUHU21623XXSP,2013-02-01 14:00:00,
2013-02-01 06:05:00,43.2,14.4,30.25,SSW,202,0.0,0.0,31,0.00,,,0.00,WUHU21623XXSP,2013-02-01 14:05:00,
2013-02-01 06:10:00,43.2,14.4,30.25,SSW,202,0.0,0.0,31,0.00,,,0.00,WUHU21623XXSP,2013-02-01 14:10:00,
2013-02-01 06:15:00,43.2,14.4,30.25,SSW,202,0.0,0.0,31,0.00,,,0.00,WUHU21623XXSP,2013-02-01 14:15:00,
2013-02-01 06:20:00,43.0,14.3,30.25,SSW,202,0.0,0.0,31,0.00,,,0.00,WUHU21623XXSP,2013-02-01 14:20:00,
2013-02-01 06:25:00,43.0,14.3,30.25,SSW,202,0.0,0.0,31,0.00,,,0.00,WUHU21623XXSP,2013-02-01 14:25:00,
2013-02-01 06:30:00,43.0,14.3,30.25,SSW,202,0.0,0.0,31,0.00,,,0.00,WUHU21623XXSP,2013-02-01 14:30:00,
2013-02-01 06:35:00,43.0,14.3,30.25,SSW,202,0.0,0.0,31,0.00,,,0.00,WUHU21623XXSP,2013-02-01 14:35:00,
2013-02-01 06:40:00,43.0,14.3,30.25,SSW,202,0.0,0.0,31,0.00,,,0.00,WUHU21623XXSP,2013-02-01 14:40:00,
2013-02-01 06:45:00,43.0,14.3,30.25,SSW,202,0.0,0.0,31,0.00,,,0.00,WUHU21623XXSP,2013-02-01 14:45:00,
2013-02-01 06:50:00,42.8,14.1,30.24,SSW,202,0.0,0.0,31,0.00,,,0.00,WUHU21623XXSP,2013-02-01 14:50:00,
2013-02-01 06:55:00,42.6,14.0,30.24,SSW,202,0.0,0.0,31,0.00,,,0.00,WUHU21623XXSP,2013-02-01 14:55:00,
2013-02-01 07:00:00,42.6,14.0,30.24,SSW,202,0.0,0.0,31,0.00,,,0.00,WUHU21623XXSP,2013-02-01 15:00:00,
2013-02-01 07:05:00,42.6,14.0,30.24,SSW,202,0.0,0.0,31,0.00,,,0.00,WUHU21623XXSP,2013-02-01 15:05:00,
2013-02-01 07:10:00,42.6,14.0,30.24,SSW,202,0.0,0.0,31,0.00,,,0.00,WUHU21623XXSP,2013-02-01 15:10:00,
2013-02-01 07:15:00,42.6,14.0,30.24,SSW,202,0.0,0.0,31,0.00,,,0.00,WUHU21623XXSP,2013-02-01 15:15:00,
2013-02-01 07:20:00,42.6,14.0,30.24,SSW,202,0.0,0.0,31,0.00,,,0.00,WUHU21623XXSP,2013-02-01 15:20:00,
2013-02-01 07:25:00,42.6,14.0,30.24,SSW,202,0.0,0.0,31,0.00,,,0.00,WUHU21623XXSP,2013-02-01 15:25:00,
2013-02-01 07:30:00,42.6,14.0,30.24,SSW,202,0.0,0.0,31,0.00,,,0.00,WUHU21623XXSP,2013-02-01 15:30:00,
2013-02-01 07:35:00,42.6,14.0,30.24,SSW,202,0.0,0.0,31,0.00,,,0.00,WUHU21623XXSP,2013-02-01 15:35:00,
2013-02-01 07:40:00,42.6,14.0,30.25,SSW,202,0.0,0.0,31,0.00,,,0.00,WUHU21623XXSP,2013-02-01 15:40:00,
2013-02-01 07:45:00,42.6,14.0,30.25,SSW,202,0.0,0.0,31,0.00,,,0.00,WUHU21623XXSP,2013-02-01 15:45:00,
2013-02-01 07:50:00,42.6,14.0,30.25,SSW,202,0.0,0.0,31,0.00,,,0.00,WUHU21623XXSP,2013-02-01 15:50:00,
2013-02-01 07:55:00,42.6,14.0,30.25,SSW,202,0.0,0.0,31,0.00,,,0.00,WUHU21623XXSP,2013-02-01 15:55:00,
2013-02-01 08:00:00,42.6,14.0,30.25,SSW,202,0.0,0.0,31,0.00,,,0.00,WUHU21623XXSP,2013-02-01 16:00:00,
2013-02-01 08:05:00,42.6,14.0,30.26,SSW,202,0.0,0.0,31,0.00,,,0.00,WUHU21623XXSP,2013-02-01 16:05:00,
2013-02-01 08:10:00,42.6,14.0,30.26,SSW,202,0.0,0.0,31,0.00,,,0.00,WUHU21623XXSP,2013-02-01 16:10:00,
2013-02-01 08:15:00,42.6,14.0,30.26,SSW,202,0.0,0.0,31,0.00,,,0.00,WUHU21623XXSP,2013-02-01 16:15:00,
2013-02-01 08:20:00,42.8,14.1,30.26,SSW,202,0.0,0.0,31,0.00,,,0.00,WUHU21623XXSP,2013-02-01 16:20:00,
2013-02-01 08:25:00,42.8,14.3,30.26,SSW,202,0.0,0.0,31,0.00,,,0.00,WUHU21623XXSP,2013-02-01 16:25:00,
2013-02-01 08:30:00,43.0,14.3,30.26,SSW,202,0.0,0.0,31,0.00,,,0.00,WUHU21623XXSP,2013-02-01 16:30:00,
2013-02-01 08:35:00,43.0,14.3,30.26,SSW,202,0.0,0.0,31,0.00,,,0.00,WUHU21623XXSP,2013-02-01 16:35:00,
2013-02-01 08:40:00,43.0,14.3,30.26,SSW,202,0.0,0.0,31,0.00,,,0.00,WUHU21623XXSP,2013-02-01 16:40:00,
2013-02-01 08:45:00,43.0,14.3,30.27,South,180,0.0,0.0,31,0.00,,,0.00,WUHU21623XXSP,2013-02-01 16:45:00,
2013-02-01 08:50:00,43.0,14.3,30.27,South,180,0.0,0.0,31,0.00,,,0.00,WUHU21623XXSP,2013-02-01 16:50:00,
2013-02-01 08:55:00,43.0,14.3,30.26,South,180,0.0,0.0,31,0.00,,,0.00,WUHU21623XXSP,2013-02-01 16:55:00,
2013-02-01 09:00:00,43.0,14.3,30.27,South,180,0.0,0.0,31,0.00,,,0.00,WUHU21623XXSP,2013-02-01 17:00:00,
2013-02-01 09:05:00,43.0,14.3,30.27,South,180,0.0,0.0,31,0.00,,,0.00,WUHU21623XXSP,2013-02-01 17:05:00,
2013-02-01 09:10:00,43.2,14.4,30.27,South,180,0.0,0.0,31,0.00,,,0.00,WUHU21623XXSP,2013-02-01 17:10:00,
2013-02-01 09:15:00,43.2,14.4,30.27,South,180,0.0,0.0,31,0.00,,,0.00,WUHU21623XXSP,2013-02-01 17:15:00,
2013-02-01 09:20:00,43.3,14.6,30.28,South,180,0.0,0.0,31,0.00,,,0.00,WUHU21623XXSP,2013-02-01 17:20:00,
2013-02-01 09:25:00,43.5,14.8,30.28,South,180,0.0,0.0,31,0.00,,,0.00,WUHU21623XXSP,2013-02-01 17:25:00,
2013-02-01 09:30:00,43.5,14.8,30.27,South,180,0.0,0.0,31,0.00,,,0.00,WUHU21623XXSP,2013-02-01 17:30:00,
2013-02-01 09:35:00,43.7,14.9,30.28,South,180,0.0,0.0,31,0.00,,,0.00,WUHU21623XXSP,2013-02-01 17:35:00,
2013-02-01 09:40:00,43.9,15.1,30.28,South,180,0.0,0.0,31,0.00,,,0.00,WUHU21623XXSP,2013-02-01 17:40:00,
2013-02-01 09:45:00,44.1,15.3,30.28,SSW,202,0.0,0.0,31,0.00,,,0.00,WUHU21623XXSP,2013-02-01 17:45:00,
2013-02-01 09:50:00,44.2,15.4,30.28,SSW,202,0.0,0.0,31,0.00,,,0.00,WUHU21623XXSP,2013-02-01 17:50:00,
2013-02-01 09:55:00,44.4,15.6,30.28,South,180,0.0,0.0,31,0.00,,,0.00,WUHU21623XXSP,2013-02-01 17:55:00,
2013-02-01 10:00:00,44.4,15.6,30.28,South,180,0.0,0.0,31,0.00,,,0.00,WUHU21623XXSP,2013-02-01 18:00:00,
2013-02-01 10:05:00,44.4,15.6,30.28,South,180,0.0,0.0,31,0.00,,,0.00,WUHU21623XXSP,2013-02-01 18:05:00,
2013-02-01 10:10:00,44.4,15.6,30.28,South,180,0.0,0.0,31,0.00,,,0.00,WUHU21623XXSP,2013-02-01 18:10:00,
2013-02-01 10:15:00,44.4,15.6,30.28,South,180,0.0,0.0,31,0.00,,,0.00,WUHU21623XXSP,2013-02-01 18:15:00,
2013-02-01 10:20:00,44.4,15.6,30.28,South,180,0.0,0.0,31,0.00,,,0.00,WUHU21623XXSP,2013-02-01 18:20:00,
2013-02-01 10:25:00,44.4,15.6,30.28,South,180,0.0,0.0,31,0.00,,,0.00,WUHU21623XXSP,2013-02-01 18:25:00,
2013-02-01 10:30:00,44.4,15.6,30.29,South,180,0.0,0.0,31,0.00,,,0.00,WUHU21623XXSP,2013-02-01 18:30:00,
2013-02-01 10:35:00,44.6,15.7,30.29,SSW,202,0.0,0.0,31,0.00,,,0.00,WUHU21623XXSP,2013-02-01 18:35:00,
2013-02-01 10:40:00,44.8,15.9,30.29,SSW,202,0.0,0.0,31,0.00,,,0.00,WUHU21623XXSP,2013-02-01 18:40:00,
2013-02-01 10:45:00,45.0,16.1,30.29,SSW,202,0.0,0.0,31,0.00,,,0.00,WUHU21623XXSP,2013-02-01 18:45:00,
2013-02-01 10:50:00,45.3,16.4,30.29,SSW,202,0.0,0.0,31,0.00,,,0.00,WUHU21623XXSP,2013-02-01 18:50:00,
2013-02-01 10:55:00,45.9,16.9,30.29,SSW,202,0.0,0.0,31,0.00,,,0.00,WUHU21623XXSP,2013-02-01 18:55:00,
2013-02-01 11:00:00,46.2,17.2,30.28,SSW,202,0.0,0.0,31,0.00,,,0.00,WUHU21623XXSP,2013-02-01 19:00:00,
2013-02-01 11:05:00,46.6,16.9,30.28,SW,225,0.0,0.0,30,0.00,,,0.00,WUHU21623XXSP,2013-02-01 19:05:00,
2013-02-01 11:10:00,47.1,17.3,30.28,SSW,202,0.0,0.0,30,0.00,,,0.00,WUHU21623XXSP,2013-02-01 19:10:00,
2013-02-01 11:15:00,47.8,17.7,30.28,SSW,202,0.0,0.0,30,0.00,,,0.00,WUHU21623XXSP,2013-02-01 19:15:00,
2013-02-01 11:20:00,48.2,17.4,30.28,South,180,0.0,1.3,29,0.00,,,0.00,WUHU21623XXSP,2013-02-01 19:20:00,
2013-02-01 11:25:00,48.4,17.5,30.28,South,180,0.0,1.3,29,0.00,,,0.00,WUHU21623XXSP,2013-02-01 19:25:00,
2013-02-01 11:30:00,48.6,17.7,30.28,South,180,0.0,0.0,29,0.00,,,0.00,WUHU21623XXSP,2013-02-01 19:30:00,
2013-02-01 11:35:00,48.6,17.7,30.28,WSW,247,0.0,0.0,29,0.00,,,0.00,WUHU21623XXSP,2013-02-01 19:35:00,
2013-02-01 11:40:00,48.2,17.4,30.28,WSW,247,0.0,0.0,29,0.00,,,0.00,WUHU21623XXSP,2013-02-01 19:40:00,
2013-02-01 11:45:00,47.8,17.1,30.28,SE,135,0.0,0.0,29,0.00,,,0.00,WUHU21623XXSP,2013-02-01 19:45:00,
2013-02-01 11:50:00,47.8,17.1,30.28,SW,225,0.4,0.4,29,0.00,,,0.00,WUHU21623XXSP,2013-02-01 19:50:00,
2013-02-01 11:55:00,48.0,17.2,30.27,West,270,0.0,0.4,29,0.00,,,0.00,WUHU21623XXSP,2013-02-01 19:55:00,
2013-02-01 12:00:00,47.8,17.1,30.27,West,270,0.0,0.0,29,0.00,,,0.00,WUHU21623XXSP,2013-02-01 20:00:00,
2013-02-01 12:05:00,47.8,17.1,30.28,West,270,0.0,0.0,29,0.00,,,0.00,WUHU21623XXSP,2013-02-01 20:05:00,
2013-02-01 12:10:00,47.8,17.1,30.27,West,270,0.0,0.0,29,0.00,,,0.00,WUHU21623XXSP,2013-02-01 20:10:00,
2013-02-01 12:15:00,48.0,17.2,30.27,West,270,0.0,0.0,29,0.00,,,0.00,WUHU21623XXSP,2013-02-01 20:15:00,
2013-02-01 12:20:00,48.0,17.2,30.27,West,270,0.0,0.0,29,0.00,,,0.00,WUHU21623XXSP,2013-02-01 20:20:00,
2013-02-01 12:25:00,48.4,17.5,30.27,West,270,0.0,0.0,29,0.00,,,0.00,WUHU21623XXSP,2013-02-01 20:25:00,
2013-02-01 12:30:00,48.6,17.7,30.26,West,270,0.0,0.0,29,0.00,,,0.00,WUHU21623XXSP,2013-02-01 20:30:00,
2013-02-01 12:35:00,48.7,17.8,30.26,West,270,0.0,0.0,29,0.00,,,0.00,WUHU21623XXSP,2013-02-01 20:35:00,
2013-02-01 12:40:00,48.9,18.0,30.26,WSW,247,3.1,3.1,29,0.00,,,0.00,WUHU21623XXSP,2013-02-01 20:40:00,
2013-02-01 12:45:00,49.3,18.2,30.26,WSW,247,3.8,3.8,29,0.00,,,0.00,WUHU21623XXSP,2013-02-01 20:45:00,
2013-02-01 12:50:00,49.6,18.5,30.26,WSW,247,3.8,4.0,29,0.00,,,0.00,WUHU21623XXSP,2013-02-01 20:50:00,
2013-02-01 12:55:00,49.8,18.7,30.25,WNW,292,0.0,4.0,29,0.00,,,0.00,WUHU21623XXSP,2013-02-01 20:55:00,
2013-02-01 13:00:00,49.6,19.5,30.25,West,270,0.0,0.0,30,0.00,,,0.00,WUHU21623XXSP,2013-02-01 21:00:00,
2013-02-01 13:05:00,49.3,19.2,30.25,WSW,247,0.0,0.0,30,0.00,,,0.00,WUHU21623XXSP,2013-02-01 21:05:00,
2013-02-01 13:10:00,49.3,19.2,30.24,WSW,247,0.0,0.0,30,0.00,,,0.00,WUHU21623XXSP,2013-02-01 21:10:00,
2013-02-01 13:15:00,49.1,19.0,30.24,WSW,247,0.0,0.0,30,0.00,,,0.00,WUHU21623XXSP,2013-02-01 21:15:00,
2013-02-01 13:20:00,49.1,19.0,30.24,NE,45,0.0,0.0,30,0.00,,,0.00,WUHU21623XXSP,2013-02-01 21:20:00,
2013-02-01 13:25:00,48.9,18.9,30.24,East,90,0.0,0.0,30,0.00,,,0.00,WUHU21623XXSP,2013-02-01 21:25:00,
2013-02-01 13:30:00,49.3,19.2,30.24,NW,315,0.0,0.0,30,0.00,,,0.00,WUHU21623XXSP,2013-02-01 21:30:00,
2013-02-01 13:35:00,50.0,19.8,30.23,ENE,67,0.0,0.0,30,0.00,,,0.00,WUHU21623XXSP,2013-02-01 21:35:00,
2013-02-01 13:40:00,50.5,20.9,30.23,ESE,112,0.0,0.0,31,0.00,,,0.00,WUHU21623XXSP,2013-02-01 21:40:00,
2013-02-01 13:45:00,50.9,21.9,30.23,West,270,0.0,0.0,32,0.00,,,0.00,WUHU21623XXSP,2013-02-01 21:45:00,
2013-02-01 13:50:00,51.3,22.3,30.23,West,270,0.0,0.0,32,0.00,,,0.00,WUHU21623XXSP,2013-02-01 21:50:00,
2013-02-01 13:55:00,51.4,22.4,30.23,WSW,247,0.0,0.0,32,0.00,,,0.00,WUHU21623XXSP,2013-02-01 21:55:00,
2013-02-01 14:00:00,51.3,22.9,30.22,NNE,22,0.0,0.0,33,0.00,,,0.00,WUHU21623XXSP,2013-02-01 22:00:00,
2013-02-01 14:05:00,51.3,22.9,30.22,SSE,157,0.0,0.0,33,0.00,,,0.00,WUHU21623XXSP,2013-02-01 22:05:00,
2013-02-01 14:10:00,51.6,22.6,30.22,ESE,112,0.0,0.0,32,0.00,,,0.00,WUHU21623XXSP,2013-02-01 22:10:00,
2013-02-01 14:15:00,52.2,23.8,30.21,SW,225,0.0,0.0,33,0.00,,,0.00,WUHU21623XXSP,2013-02-01 22:15:00,
2013-02-01 14:20:00,52.3,25.3,30.21,ENE,67,1.1,1.1,35,0.00,,,0.00,WUHU21623XXSP,2013-02-01 22:20:00,
2013-02-01 14:25:00,52.0,25.0,30.21,WSW,247,6.0,6.0,35,0.00,,,0.00,WUHU21623XXSP,2013-02-01 22:25:00,
2013-02-01 14:30:00,51.6,24.0,30.21,WNW,292,0.0,6.0,34,0.00,,,0.00,WUHU21623XXSP,2013-02-01 22:30:00,
2013-02-01 14:35:00,52.0,24.3,30.21,SSW,202,0.0,0.0,34,0.00,,,0.00,WUHU21623XXSP,2013-02-01 22:35:00,
2013-02-01 14:40:00,52.3,24.6,30.21,SW,225,4.3,4.3,34,0.00,,,0.00,WUHU21623XXSP,2013-02-01 22:40:00,
2013-02-01 14:45:00,52.3,25.3,30.21,West,270,0.0,4.3,35,0.00,,,0.00,WUHU21623XXSP,2013-02-01 22:45:00,
2013-02-01 14:50:00,52.3,25.3,30.21,NE,45,0.0,0.0,35,0.00,,,0.00,WUHU21623XXSP,2013-02-01 22:50:00,
2013-02-01 14:55:00,52.2,24.4,30.21,ENE,67,0.0,0.0,34,0.00,,,0.00,WUHU21623XXSP,2013-02-01 22:55:00,
2013-02-01 15:00:00,52.3,25.3,30.21,ENE,67,0.0,0.0,35,0.00,,,0.00,WUHU21623XXSP,2013-02-01 23:00:00,
2013-02-01 15:05:00,52.3,26.0,30.21,South,180,0.0,0.0,36,0.00,,,0.00,WUHU21623XXSP,2013-02-01 23:05:00,
2013-02-01 15:10:00,52.3,26.7,30.20,NE,45,0.0,0.0,37,0.00,,,0.00,WUHU21623XXSP,2013-02-01 23:10:00,
2013-02-01 15:15:00,52.2,25.8,30.20,West,270,0.0,0.0,36,0.00,,,0.00,WUHU21623XXSP,2013-02-01 23:15:00,
2013-02-01 15:20:00,52.0,25.6,30.20,SSE,157,0.7,0.7,36,0.00,,,0.00,WUHU21623XXSP,2013-02-01 23:20:00,
2013-02-01 15:25:00,51.8,25.5,30.20,NNW,337,0.0,0.7,36,0.00,,,0.00,WUHU21623XXSP,2013-02-01 23:25:00,
2013-02-01 15:30:00,51.8,25.5,30.20,SSW,202,0.0,0.0,36,0.00,,,0.00,WUHU21623XXSP,2013-02-01 23:30:00,
2013-02-01 15:35:00,51.6,25.3,30.20,NE,45,0.0,2.0,36,0.00,,,0.00,WUHU21623XXSP,2013-02-01 23:35:00,
2013-02-01 15:40:00,51.4,26.5,30.19,South,180,0.0,2.0,38,0.00,,,0.00,WUHU21623XXSP,2013-02-01 23:40:00,
2013-02-01 15:45:00,51.1,25.5,30.19,SSW,202,0.0,0.0,37,0.00,,,0.00,WUHU21623XXSP,2013-02-01 23:45:00,
2013-02-01 15:50:00,50.9,24.7,30.19,SSW,202,0.0,0.0,36,0.00,,,0.00,WUHU21623XXSP,2013-02-01 23:50:00,
2013-02-01 15:55:00,50.9,25.4,30.19,North,0,0.0,0.0,37,0.00,,,0.00,WUHU21623XXSP,2013-02-01 23:55:00,
2013-02-01 16:00:00,50.7,25.2,30.19,NE,45,0.0,0.0,37,0.00,,,0.00,WUHU21623XXSP,2013-02-02 00:00:00,
2013-02-01 16:05:00,50.7,25.2,30.19,NE,45,0.0,0.0,37,0.00,,,0.00,WUHU21623XXSP,2013-02-02 00:05:00,
2013-02-01 16:10:00,50.5,25.0,30.19,West,270,0.0,0.0,37,0.00,,,0.00,WUHU21623XXSP,2013-02-02 00:10:00,
2013-02-01 16:15:00,50.4,25.0,30.19,WSW,247,0.0,0.0,36,0.00,,,0.00,WUHU21623XXSP,2013-02-02 00:15:00,
2013-02-01 16:20:00,50.2,24.0,30.19,SSW,202,0.0,0.0,36,0.00,,,0.00,WUHU21623XXSP,2013-02-02 00:20:00,
2013-02-01 16:25:00,50.2,23.3,30.19,South,180,0.0,0.0,35,0.00,,,0.00,WUHU21623XXSP,2013-02-02 00:25:00,
2013-02-01 16:31:00,49.8,23.0,30.19,West,270,0.0,0.0,35,0.00,,,0.00,WUHU21623XXSP,2013-02-02 00:31:00,
2013-02-01 16:36:00,49.8,23.0,30.19,North,0,0.0,0.0,35,0.00,,,0.00,WUHU21623XXSP,2013-02-02 00:36:00,
2013-02-01 16:41:00,49.5,22.0,30.18,ESE,112,0.0,0.0,34,0.00,,,0.00,WUHU21623XXSP,2013-02-02 00:41:00,
2013-02-01 16:46:00,49.1,22.4,30.18,WSW,247,0.0,4.7,35,0.00,,,0.00,WUHU21623XXSP,2013-02-02 00:46:00,
2013-02-01 16:51:00,48.9,22.3,30.19,South,180,0.0,4.7,35,0.00,,,0.00,WUHU21623XXSP,2013-02-02 00:51:00,
2013-02-01 16:56:00,48.7,22.1,30.18,SE,135,0.0,3.1,35,0.00,,,0.00,WUHU21623XXSP,2013-02-02 00:56:00,
2013-02-01 17:01:00,48.2,21.6,30.19,SE,135,0.0,0.0,35,0.00,,,0.00,WUHU21623XXSP,2013-02-02 01:01:00,
2013-02-01 17:06:00,47.8,20.7,30.18,East,90,0.0,0.0,34,0.00,,,0.00,WUHU21623XXSP,2013-02-02 01:06:00,
2013-02-01 17:11:00,47.3,20.2,30.18,East,90,0.0,0.0,34,0.00,,,0.00,WUHU21623XXSP,2013-02-02 01:11:00,
2013-02-01 17:16:00,46.9,19.9,30.18,East,90,0.0,0.0,34,0.00,,,0.00,WUHU21623XXSP,2013-02-02 01:16:00,
2013-02-01 17:21:00,46.6,19.5,30.18,ENE,67,0.0,0.0,34,0.00,,,0.00,WUHU21623XXSP,2013-02-02 01:21:00,
2013-02-01 17:26:00,46.2,18.5,30.18,ENE,67,0.0,0.0,33,0.00,,,0.00,WUHU21623XXSP,2013-02-02 01:26:00,
2013-02-01 17:31:00,45.9,18.2,30.18,ENE,67,0.0,0.0,33,0.00,,,0.00,WUHU21623XXSP,2013-02-02 01:31:00,
2013-02-01 17:36:00,45.5,17.9,30.18,ENE,67,0.0,0.0,33,0.00,,,0.00,WUHU21623XXSP,2013-02-02 01:36:00,
2013-02-01 17:41:00,45.1,17.6,30.19,ENE,67,0.0,0.0,33,0.00,,,0.00,WUHU21623XXSP,2013-02-02 01:41:00,
2013-02-01 17:46:00,45.0,17.4,30.18,ENE,67,0.0,0.0,33,0.00,,,0.00,WUHU21623XXSP,2013-02-02 01:46:00,
2013-02-01 17:51:00,45.0,16.7,30.18,ENE,67,0.0,0.0,32,0.00,,,0.00,WUHU21623XXSP,2013-02-02 01:51:00,
2013-02-01 17:56:00,44.4,16.3,30.19,ENE,67,0.0,0.0,32,0.00,,,0.00,WUHU21623XXSP,2013-02-02 01:56:00,
2013-02-01 18:01:00,44.4,16.3,30.19,ENE,67,0.0,0.0,32,0.00,,,0.00,WUHU21623XXSP,2013-02-02 02:01:00,
2013-02-01 18:06:00,44.2,16.1,30.19,NNW,337,0.0,0.0,32,0.00,,,0.00,WUHU21623XXSP,2013-02-02 02:06:00,
2013-02-01 18:11:00,44.1,15.9,30.19,ENE,67,0.0,0.0,32,0.00,,,0.00,WUHU21623XXSP,2013-02-02 02:11:00,
2013-02-01 18:16:00,43.9,15.8,30.19,ENE,67,0.0,0.0,32,0.00,,,0.00,WUHU21623XXSP,2013-02-02 02:16:00,
2013-02-01 18:21:00,43.7,15.6,30.19,SSE,157,0.0,0.0,32,0.00,,,0.00,WUHU21623XXSP,2013-02-02 02:21:00,
2013-02-01 18:26:00,43.7,15.6,30.19,SSW,202,0.0,0.0,32,0.00,,,0.00,WUHU21623XXSP,2013-02-02 02:26:00,
2013-02-01 18:31:00,43.5,15.4,30.19,WSW,247,0.0,0.0,32,0.00,,,0.00,WUHU21623XXSP,2013-02-02 02:31:00,
2013-02-01 18:36:00,43.3,15.3,30.19,SW,225,0.0,0.0,32,0.00,,,0.00,WUHU21623XXSP,2013-02-02 02:36:00,
2013-02-01 18:41:00,43.2,15.1,30.19,NW,315,0.0,0.0,32,0.00,,,0.00,WUHU21623XXSP,2013-02-02 02:41:00,
2013-02-01 18:46:00,43.2,14.4,30.20,SE,135,0.0,0.0,31,0.00,,,0.00,WUHU21623XXSP,2013-02-02 02:46:00,
2013-02-01 18:51:00,43.0,15.0,30.20,ESE,112,0.0,0.0,32,0.00,,,0.00,WUHU21623XXSP,2013-02-02 02:51:00,
2013-02-01 18:56:00,42.6,14.6,30.20,ENE,67,0.0,0.0,32,0.00,,,0.00,WUHU21623XXSP,2013-02-02 02:56:00,
2013-02-01 19:01:00,42.6,14.6,30.20,ENE,67,0.0,0.0,32,0.00,,,0.00,WUHU21623XXSP,2013-02-02 03:01:00,
2013-02-01 19:06:00,42.6,14.6,30.20,SW,225,0.0,0.0,32,0.00,,,0.00,WUHU21623XXSP,2013-02-02 03:06:00,
2013-02-01 19:11:00,42.4,14.5,30.20,SSE,157,0.0,0.0,32,0.00,,,0.00,WUHU21623XXSP,2013-02-02 03:11:00,
2013-02-01 19:16:00,42.4,14.5,30.20,SE,135,0.0,0.0,32,0.00,,,0.00,WUHU21623XXSP,2013-02-02 03:16:00,
2013-02-01 19:21:00,42.4,13.8,30.20,SE,135,0.0,0.0,31,0.00,,,0.00,WUHU21623XXSP,2013-02-02 03:21:00,
2013-02-01 19:26:00,42.4,14.5,30.20,North,0,0.0,0.0,32,0.00,,,0.00,WUHU21623XXSP,2013-02-02 03:26:00,
2013-02-01 19:31:00,42.3,14.3,30.20,North,0,0.0,0.0,32,0.00,,,0.00,WUHU21623XXSP,2013-02-02 03:31:00,
2013-02-01 19:36:00,42.1,14.2,30.20,North,0,0.0,0.0,32,0.00,,,0.00,WUHU21623XXSP,2013-02-02 03:36:00,
2013-02-01 19:41:00,42.1,14.2,30.20,NE,45,0.0,0.0,32,0.00,,,0.00,WUHU21623XXSP,2013-02-02 03:41:00,
2013-02-01 19:46:00,42.1,14.2,30.20,NE,45,0.0,0.0,32,0.00,,,0.00,WUHU21623XXSP,2013-02-02 03:46:00,
2013-02-01 19:51:00,41.9,14.1,30.20,North,0,0.0,0.0,32,0.00,,,0.00,WUHU21623XXSP,2013-02-02 03:51:00,
2013-02-01 19:56:00,41.9,14.1,30.21,NNW,337,0.0,0.0,32,0.00,,,0.00,WUHU21623XXSP,2013-02-02 03:56:00,
2013-02-01 20:01:00,41.7,13.9,30.21,WSW,247,0.0,0.0,32,0.00,,,0.00,WUHU21623XXSP,2013-02-02 04:01:00,
2013-02-01 20:06:00,41.7,13.9,30.21,SSW,202,0.0,0.0,32,0.00,,,0.00,WUHU21623XXSP,2013-02-02 04:06:00,
2013-02-01 20:11:00,41.7,13.9,30.21,SSE,157,0.0,0.0,32,0.00,,,0.00,WUHU21623XXSP,2013-02-02 04:11:00,
2013-02-01 20:16:00,41.5,13.7,30.21,North,0,0.0,0.0,32,0.00,,,0.00,WUHU21623XXSP,2013-02-02 04:16:00,
2013-02-01 20:21:00,41.5,13.7,30.20,SW,225,0.0,0.0,32,0.00,,,0.00,WUHU21623XXSP,2013-02-02 04:21:00,
2013-02-01 20:26:00,41.5,13.7,30.21,South,180,0.0,0.0,32,0.00,,,0.00,WUHU21623XXSP,2013-02-02 04:26:00,
2013-02-01 20:31:00,41.5,13.7,30.21,South,180,0.0,0.0,32,0.00,,,0.00,WUHU21623XXSP,2013-02-02 04:31:00,
2013-02-01 20:36:00,41.4,13.6,30.21,South,180,0.0,0.0,32,0.00,,,0.00,WUHU21623XXSP,2013-02-02 04:36:00,
2013-02-01 20:41:00,41.2,13.5,30.21,SSE,157,0.0,0.0,32,0.00,,,0.00,WUHU21623XXSP,2013-02-02 04:41:00,
2013-02-01 20:46:00,41.2,13.5,30.21,SSE,157,0.0,0.0,32,0.00,,,0.00,WUHU21623XXSP,2013-02-02 04:46:00,
2013-02-01 20:51:00,41.2,13.5,30.21,SSW,202,0.0,0.0,32,0.00,,,0.00,WUHU21623XXSP,2013-02-02 04:51:00,
2013-02-01 20:56:00,40.8,13.2,30.21,SSW,202,0.0,0.0,32,0.00,,,0.00,WUHU21623XXSP,2013-02-02 04:56:00,
2013-02-01 21:00:00,40.8,13.2,30.21,SSW,202,0.0,0.0,32,0.00,,,0.00,WUHU21623XXSP,2013-02-02 05:00:00,
2013-02-01 21:05:00,40.8,13.2,30.21,SSW,202,0.0,0.0,32,0.00,,,0.00,WUHU21623XXSP,2013-02-02 05:05:00,
2013-02-01 21:10:00,40.8,13.2,30.21,WNW,292,0.0,0.0,32,0.00,,,0.00,WUHU21623XXSP,2013-02-02 05:10:00,
2013-02-01 21:15:00,40.8,13.2,30.21,WNW,292,0.0,0.0,32,0.00,,,0.00,WUHU21623XXSP,2013-02-02 05:15:00,
2013-02-01 21:20:00,40.8,13.2,30.21,West,270,0.0,0.0,32,0.00,,,0.00,WUHU21623XXSP,2013-02-02 05:20:00,
2013-02-01 21:25:00,40.6,13.0,30.21,ESE,112,0.0,0.0,32,0.00,,,0.00,WUHU21623XXSP,2013-02-02 05:25:00,
2013-02-01 21:30:00,40.6,13.0,30.21,South,180,0.0,2.0,32,0.00,,,0.00,WUHU21623XXSP,2013-02-02 05:30:00,
2013-02-01 21:35:00,40.6,13.0,30.21,SW,225,0.0,2.0,32,0.00,,,0.00,WUHU21623XXSP,2013-02-02 05:35:00,
2013-02-01 21:40:00,40.6,13.0,30.21,NE,45,0.0,0.0,32,0.00,,,0.00,WUHU21623XXSP,2013-02-02 05:40:00,
2013-02-01 21:45:00,40.8,13.2,30.21,ENE,67,0.0,0.0,32,0.00,,,0.00,WUHU21623XXSP,2013-02-02 05:45:00,
2013-02-01 21:50:00,40.6,13.2,30.21,ENE,67,0.0,0.0,32,0.00,,,0.00,WUHU21623XXSP,2013-02-02 05:50:00,
2013-02-01 21:55:00,40.6,13.0,30.21,West,270,0.0,0.0,32,0.00,,,0.00,WUHU21623XXSP,2013-02-02 05:55:00,
2013-02-01 22:00:00,40.3,12.7,30.21,West,270,0.0,0.0,32,0.00,,,0.00,WUHU21623XXSP,2013-02-02 06:00:00,
2013-02-01 22:05:00,40.3,12.7,30.21,NE,45,2.5,2.5,32,0.00,,,0.00,WUHU21623XXSP,2013-02-02 06:05:00,
2013-02-01 22:10:00,40.5,12.8,30.21,North,0,0.0,2.5,32,0.00,,,0.00,WUHU21623XXSP,2013-02-02 06:10:00,
2013-02-01 22:15:00,40.3,12.7,30.20,SE,135,0.0,0.0,32,0.00,,,0.00,WUHU21623XXSP,2013-02-02 06:15:00,
2013-02-01 22:20:00,40.3,12.7,30.21,ENE,67,0.0,0.0,32,0.00,,,0.00,WUHU21623XXSP,2013-02-02 06:20:00,
2013-02-01 22:25:00,40.1,12.5,30.21,South,180,0.0,0.0,32,0.00,,,0.00,WUHU21623XXSP,2013-02-02 06:25:00,
2013-02-01 22:30:00,39.9,12.3,30.21,SSE,157,0.0,0.0,32,0.00,,,0.00,WUHU21623XXSP,2013-02-02 06:30:00,
2013-02-01 22:35:00,39.9,12.3,30.21,ENE,67,0.0,0.0,32,0.00,,,0.00,WUHU21623XXSP,2013-02-02 06:35:00,
2013-02-01 22:40:00,39.9,12.3,30.21,ENE,67,0.0,0.0,32,0.00,,,0.00,WUHU21623XXSP,2013-02-02 06:40:00,
2013-02-01 22:45:00,39.7,12.2,30.21,ENE,67,0.0,0.0,32,0.00,,,0.00,WUHU21623XXSP,2013-02-02 06:45:00,
2013-02-01 22:50:00,39.7,12.2,30.21,SSE,157,0.0,0.0,32,0.00,,,0.00,WUHU21623XXSP,2013-02-02 06:50:00,
2013-02-01 22:55:00,39.7,12.2,30.21,WSW,247,0.0,0.0,32,0.00,,,0.00,WUHU21623XXSP,2013-02-02 06:55:00,
2013-02-01 23:00:00,39.6,12.0,30.21,ESE,112,0.0,0.0,32,0.00,,,0.00,WUHU21623XXSP,2013-02-02 07:00:00,
2013-02-01 23:05:00,39.9,12.3,30.20,NE,45,0.0,0.0,32,0.00,,,0.00,WUHU21623XXSP,2013-02-02 07:05:00,
2013-02-01 23:10:00,39.9,12.3,30.21,SSE,157,0.0,0.0,32,0.00,,,0.00,WUHU21623XXSP,2013-02-02 07:10:00,
2013-02-01 23:15:00,39.9,12.3,30.21,East,90,0.0,0.0,32,0.00,,,0.00,WUHU21623XXSP,2013-02-02 07:15:00,
2013-02-01 23:20:00,39.9,12.3,30.21,SE,135,0.0,0.0,32,0.00,,,0.00,WUHU21623XXSP,2013-02-02 07:20:00,
2013-02-01 23:25:00,39.7,12.2,30.21,SE,135,0.0,3.8,32,0.00,,,0.00,WUHU21623XXSP,2013-02-02 07:25:00,
2013-02-01 23:30:00,39.7,12.2,30.21,South,180,0.0,3.8,32,0.00,,,0.00,WUHU21623XXSP,2013-02-02 07:30:00,
2013-02-01 23:35:00,39.7,12.2,30.21,South,180,0.0,0.0,32,0.00,,,0.00,WUHU21623XXSP,2013-02-02 07:35:00,
2013-02-01 23:40:00,39.7,12.2,30.21,South,180,0.0,0.0,32,0.00,,,0.00,WUHU21623XXSP,2013-02-02 07:40:00,
2013-02-01 23:45:00,39.7,12.2,30.21,SE,135,0.0,0.0,32,0.00,,,0.00,WUHU21623XXSP,2013-02-02 07:45:00,
2013-02-01 23:50:00,39.7,12.2,30.21,NE,45,0.0,0.0,32,0.00,,,0.00,WUHU21623XXSP,2013-02-02 07:50:00,
2013-02-01 23:55:00,39.9,12.3,30.21,NE,45,0.0,0.0,32,0.00,,,0.00,WUHU21623XXSP,2013-02-02 07:55:00,